Time;durP1;ratioP1;P1;durP2;ratioP2;P2;SDS_P1;SDS_P2;PMS_P1;PMS_P2;Temp;Humidity;BMP_temperature;BMP_pressure;BME280_temperature;BME280_humidity;BME280_pressure;Samples;Min_cycle;Max_cycle;Signal;HPM_P1;HPM_P2
2021/12/20 00:02:11;;;;;;;0.40;0.40;;;3.00;99.90;;;;;;4425500;32;20120;-65
2021/12/20 00:04:36;;;;;;;0.47;0.47;;;3.00;99.90;;;;;;4421108;32;20062;-64
2021/12/20 00:07:02;;;;;;;0.75;0.75;;;3.00;99.90;;;;;;4418090;32;20549;-65
2021/12/20 00:09:27;;;;;;;0.40;0.40;;;2.90;99.90;;;;;;4428511;32;20112;-64
2021/12/20 00:11:53;;;;;;;0.30;0.30;;;2.90;99.90;;;;;;4427840;32;20466;-65
2021/12/20 00:14:18;;;;;;;1.55;0.60;;;2.90;99.90;;;;;;4430086;32;20069;-64
2021/12/20 00:16:44;;;;;;;0.37;0.37;;;2.80;99.90;;;;;;4414482;32;20073;-64
2021/12/20 00:19:10;;;;;;;0.40;0.40;;;2.70;99.90;;;;;;4414689;32;20505;-64
2021/12/20 00:21:36;;;;;;;0.60;0.60;;;2.70;99.90;;;;;;4414980;32;20061;-64
2021/12/20 00:24:03;;;;;;;0.30;0.30;;;2.60;99.90;;;;;;4413787;32;20062;-64
2021/12/20 00:26:29;;;;;;;0.40;0.40;;;2.60;99.90;;;;;;4422342;32;20520;-64
2021/12/20 00:28:54;;;;;;;0.50;0.50;;;2.60;99.90;;;;;;4428339;32;20074;-64
2021/12/20 00:31:20;;;;;;;0.35;0.35;;;2.60;99.90;;;;;;4423763;32;20066;-64
2021/12/20 00:33:45;;;;;;;0.30;0.30;;;2.70;99.90;;;;;;4415639;32;20094;-65
2021/12/20 00:36:11;;;;;;;0.35;0.35;;;2.60;99.90;;;;;;4429178;32;20247;-65
2021/12/20 00:40:37;;;;;;;2.75;1.87;;;2.70;99.90;;;;;;4426639;32;20495;-65
2021/12/20 00:41:23;;;;;;;1.25;1.00;;;2.70;99.90;;;;;;4410906;32;20125;-65
2021/12/20 00:43:49;;;;;;;0.40;0.40;;;2.70;99.90;;;;;;4422065;32;20538;-64
2021/12/20 00:46:14;;;;;;;0.30;0.30;;;2.60;99.90;;;;;;4421448;32;20392;-65
2021/12/20 00:48:40;;;;;;;0.30;0.30;;;2.60;99.90;;;;;;4415956;32;20124;-65
2021/12/20 00:51:05;;;;;;;0.30;0.30;;;2.60;99.90;;;;;;4425077;32;20070;-64
2021/12/20 00:53:31;;;;;;;0.60;0.60;;;2.60;99.90;;;;;;4415772;32;20061;-65
2021/12/20 00:55:57;;;;;;;0.30;0.30;;;2.60;99.90;;;;;;4417486;32;20061;-65
2021/12/20 00:58:22;;;;;;;0.55;0.55;;;2.70;99.90;;;;;;4420238;32;20548;-65
2021/12/20 01:00:51;;;;;;;0.65;0.45;;;2.70;99.90;;;;;;4412943;32;20128;-66
2021/12/20 01:03:19;;;;;;;0.73;0.70;;;2.70;99.90;;;;;;4412757;32;20117;-66
2021/12/20 01:05:44;;;;;;;0.40;0.40;;;2.70;99.90;;;;;;4419311;32;20074;-65
2021/12/20 01:08:11;;;;;;;0.30;0.30;;;2.60;99.90;;;;;;4414096;32;20397;-65
2021/12/20 01:10:43;;;;;;;0.40;0.40;;;2.60;99.90;;;;;;4421899;32;20073;-65
2021/12/20 01:13:09;;;;;;;0.40;0.40;;;2.60;99.90;;;;;;4423165;32;20104;-65
2021/12/20 01:15:39;;;;;;;0.37;0.37;;;2.60;99.90;;;;;;4420650;32;20138;-66
2021/12/20 01:18:06;;;;;;;0.30;0.30;;;2.60;99.90;;;;;;4412681;32;20112;-66
2021/12/20 01:20:33;;;;;;;0.40;0.40;;;2.60;99.90;;;;;;4423583;32;20077;-66
2021/12/20 01:22:59;;;;;;;0.35;0.35;;;2.50;99.90;;;;;;4428183;32;20062;-65
2021/12/20 01:25:25;;;;;;;0.57;0.57;;;2.50;99.90;;;;;;4425714;32;20062;-65
2021/12/20 01:27:51;;;;;;;0.40;0.40;;;2.50;99.90;;;;;;4422546;32;20112;-65
2021/12/20 01:30:19;;;;;;;0.30;0.30;;;2.50;99.90;;;;;;4413587;32;20443;-66
2021/12/20 01:32:45;;;;;;;0.70;0.70;;;2.50;99.90;;;;;;4421614;32;20183;-66
2021/12/20 01:35:12;;;;;;;0.30;0.30;;;2.50;99.90;;;;;;4427951;32;20083;-65
2021/12/20 01:37:38;;;;;;;0.40;0.40;;;2.50;99.90;;;;;;4427219;32;20077;-66
2021/12/20 01:40:07;;;;;;;0.40;0.40;;;2.60;99.90;;;;;;4426453;32;20066;-65
2021/12/20 01:42:34;;;;;;;0.40;0.40;;;2.60;99.90;;;;;;4420966;32;20074;-65
2021/12/20 01:45:01;;;;;;;0.40;0.40;;;2.60;99.90;;;;;;4413675;32;20066;-65
2021/12/20 01:47:30;;;;;;;0.93;0.70;;;2.60;99.90;;;;;;4424140;32;20408;-65
2021/12/20 01:50:06;;;;;;;0.35;0.35;;;2.50;99.90;;;;;;4416746;32;20434;-65
2021/12/20 01:52:39;;;;;;;0.30;0.30;;;2.50;99.90;;;;;;4424655;32;20609;-65
2021/12/20 01:55:11;;;;;;;0.30;0.30;;;2.50;99.90;;;;;;4415699;32;20113;-65
2021/12/20 01:57:37;;;;;;;5.15;0.98;;;2.50;99.90;;;;;;4425689;32;20466;-65
2021/12/20 02:00:07;;;;;;;0.75;0.75;;;2.50;99.90;;;;;;4428566;32;20086;-66
2021/12/20 02:02:32;;;;;;;0.30;0.30;;;2.50;99.90;;;;;;4415325;32;20138;-65
2021/12/20 02:05:06;;;;;;;0.30;0.30;;;2.40;99.90;;;;;;4418656;32;20066;-66
2021/12/20 02:07:48;;;;;;;0.30;0.30;;;2.40;99.90;;;;;;4421102;32;20583;-65
2021/12/20 02:10:14;;;;;;;0.30;0.30;;;2.40;99.90;;;;;;4419986;32;20061;-66
2021/12/20 02:12:39;;;;;;;0.30;0.30;;;2.50;99.90;;;;;;4415826;32;20670;-66
2021/12/20 02:15:05;;;;;;;0.70;0.70;;;2.50;99.90;;;;;;4416474;32;20091;-65
2021/12/20 02:17:31;;;;;;;0.50;0.50;;;2.50;99.90;;;;;;4403063;32;20074;-65
2021/12/20 02:20:01;;;;;;;0.40;0.40;;;2.40;99.90;;;;;;4426530;32;20444;-65
2021/12/20 02:22:26;;;;;;;0.40;0.40;;;2.40;99.90;;;;;;4416206;32;20070;-65
2021/12/20 02:24:52;;;;;;;0.40;0.40;;;2.40;99.90;;;;;;4415246;32;20117;-66
2021/12/20 02:27:19;;;;;;;1.08;0.98;;;2.40;99.90;;;;;;4422583;32;20058;-65
2021/12/20 02:30:00;;;;;;;0.30;0.30;;;2.50;99.90;;;;;;4418644;32;20062;-65
2021/12/20 02:37:57;;;;;;;0.40;0.40;;;2.50;99.90;;;;;;4408946;32;20567;-65
2021/12/20 02:40:23;;;;;;;0.40;0.40;;;2.60;99.90;;;;;;4424574;32;20053;-65
2021/12/20 02:42:51;;;;;;;0.50;0.50;;;2.50;99.90;;;;;;4425944;32;20201;-66
2021/12/20 02:45:17;;;;;;;0.30;0.30;;;2.50;99.90;;;;;;4430261;32;20078;-67
2021/12/20 02:47:45;;;;;;;0.30;0.30;;;2.40;99.90;;;;;;4416937;32;20046;-65
2021/12/20 02:50:12;;;;;;;0.32;0.32;;;2.40;99.90;;;;;;4416261;32;20066;-66
2021/12/20 02:52:38;;;;;;;0.40;0.40;;;2.50;99.90;;;;;;4424344;32;20073;-66
2021/12/20 02:55:05;;;;;;;0.40;0.40;;;2.50;99.90;;;;;;4416254;32;20199;-67
2021/12/20 02:57:35;;;;;;;0.45;0.45;;;2.50;99.90;;;;;;4419366;32;20117;-66
2021/12/20 03:00:01;;;;;;;0.30;0.30;;;2.40;99.90;;;;;;4423090;32;20449;-66
2021/12/20 03:02:26;;;;;;;0.40;0.40;;;2.40;99.90;;;;;;4415958;32;20541;-65
2021/12/20 03:04:52;;;;;;;0.40;0.40;;;2.40;99.90;;;;;;4426808;32;20074;-66
2021/12/20 03:07:23;;;;;;;0.50;0.50;;;2.40;99.90;;;;;;4418879;32;20131;-66
2021/12/20 03:09:54;;;;;;;0.30;0.30;;;2.40;99.90;;;;;;4426174;32;20061;-66
2021/12/20 03:12:22;;;;;;;0.30;0.30;;;2.40;99.90;;;;;;4424431;32;20082;-67
2021/12/20 03:14:50;;;;;;;49.95;1.15;;;2.40;99.90;;;;;;4430418;32;20407;-66
2021/12/20 03:17:16;;;;;;;0.40;0.40;;;2.40;99.90;;;;;;4418450;32;20074;-66
2021/12/20 03:19:41;;;;;;;0.40;0.40;;;2.40;99.90;;;;;;4428303;32;20058;-65
2021/12/20 03:22:08;;;;;;;0.50;0.50;;;2.50;99.90;;;;;;4415188;32;20470;-66
2021/12/20 03:24:33;;;;;;;0.35;0.35;;;2.50;99.90;;;;;;4428417;32;20510;-65
2021/12/20 03:26:59;;;;;;;0.40;0.40;;;2.40;99.90;;;;;;4430848;32;20205;-66
2021/12/20 03:29:25;;;;;;;0.30;0.30;;;2.30;99.90;;;;;;4429590;32;20487;-66
2021/12/20 03:31:50;;;;;;;0.62;0.62;;;2.40;99.90;;;;;;4417607;32;20082;-65
2021/12/20 03:34:17;;;;;;;0.37;0.37;;;2.40;99.90;;;;;;4418367;32;20074;-66
2021/12/20 03:36:42;;;;;;;3.62;1.12;;;2.30;99.90;;;;;;4425395;32;20070;-66
2021/12/20 03:39:08;;;;;;;0.40;0.40;;;2.30;99.90;;;;;;4429203;32;20602;-65
2021/12/20 03:41:35;;;;;;;0.40;0.40;;;2.20;99.90;;;;;;4427757;32;20136;-66
2021/12/20 03:44:01;;;;;;;0.50;0.50;;;2.20;99.90;;;;;;4416450;32;20058;-66
2021/12/20 03:46:26;;;;;;;0.30;0.30;;;2.20;99.90;;;;;;4422501;32;20378;-66
2021/12/20 03:48:52;;;;;;;0.40;0.40;;;2.20;99.90;;;;;;4420738;32;20095;-66
2021/12/20 03:51:18;;;;;;;0.77;0.77;;;2.30;99.90;;;;;;4428049;32;20576;-66
2021/12/20 03:53:43;;;;;;;3.20;1.33;;;2.30;99.90;;;;;;4420908;32;20117;-66
2021/12/20 03:56:09;;;;;;;0.30;0.30;;;2.30;99.90;;;;;;4415074;32;20529;-66
2021/12/20 03:58:35;;;;;;;0.30;0.30;;;2.30;99.90;;;;;;4422297;32;20073;-66
2021/12/20 04:01:11;;;;;;;0.40;0.40;;;2.30;99.90;;;;;;4414087;32;20432;-67
2021/12/20 04:03:37;;;;;;;0.40;0.40;;;2.30;99.90;;;;;;4420065;32;20065;-67
2021/12/20 04:06:04;;;;;;;0.40;0.40;;;2.20;99.90;;;;;;4416563;32;20082;-66
2021/12/20 04:08:31;;;;;;;0.40;0.40;;;2.20;99.90;;;;;;4430344;32;20073;-66
2021/12/20 04:10:57;;;;;;;0.40;0.40;;;2.20;99.90;;;;;;4417159;32;20066;-66
2021/12/20 04:13:23;;;;;;;0.50;0.50;;;2.10;99.90;;;;;;4415468;32;20188;-66
2021/12/20 04:15:49;;;;;;;0.50;0.50;;;2.10;99.90;;;;;;4419269;32;20094;-66
2021/12/20 04:18:14;;;;;;;0.40;0.40;;;2.10;99.90;;;;;;4429897;32;20061;-66
2021/12/20 04:20:40;;;;;;;1.67;0.85;;;2.10;99.90;;;;;;4418422;32;20069;-66
2021/12/20 04:23:06;;;;;;;4.65;1.15;;;2.10;99.90;;;;;;4413863;32;20075;-66
2021/12/20 04:25:31;;;;;;;0.52;0.52;;;2.10;99.90;;;;;;4414272;32;20074;-65
2021/12/20 04:27:57;;;;;;;0.50;0.50;;;2.10;99.90;;;;;;4414850;32;20117;-65
2021/12/20 04:30:22;;;;;;;0.85;0.85;;;2.10;99.90;;;;;;4414786;32;20089;-66
2021/12/20 04:34:27;;;;;;;1.08;1.02;;;2.10;99.90;;;;;;4479590;32;89859;-67
2021/12/20 04:36:53;;;;;;;0.40;0.40;;;2.00;99.90;;;;;;4473771;32;20284;-65
2021/12/20 04:39:23;;;;;;;0.30;0.30;;;2.10;99.90;;;;;;4473630;32;20069;-66
2021/12/20 04:41:49;;;;;;;0.50;0.50;;;2.00;99.90;;;;;;4472474;32;20093;-66
2021/12/20 04:44:14;;;;;;;0.40;0.40;;;1.90;99.90;;;;;;4473134;32;20052;-67
2021/12/20 04:46:40;;;;;;;1.75;0.85;;;1.80;99.90;;;;;;4465277;32;20587;-65
2021/12/20 04:49:05;;;;;;;0.60;0.60;;;1.90;99.90;;;;;;4465167;32;20061;-65
2021/12/20 04:51:31;;;;;;;0.60;0.60;;;1.90;99.90;;;;;;4472767;32;20497;-65
2021/12/20 04:53:56;;;;;;;0.30;0.30;;;1.90;99.90;;;;;;4471675;32;20065;-65
2021/12/20 04:56:22;;;;;;;0.45;0.45;;;2.00;99.90;;;;;;4456344;32;20072;-66
2021/12/20 04:58:48;;;;;;;0.40;0.40;;;2.00;99.90;;;;;;4457555;32;20056;-66
2021/12/20 05:01:13;;;;;;;0.40;0.40;;;2.00;99.90;;;;;;4465936;32;20061;-65
2021/12/20 05:03:39;;;;;;;0.62;0.62;;;2.00;99.90;;;;;;4468714;32;20085;-66
2021/12/20 05:06:04;;;;;;;0.40;0.40;;;2.00;99.90;;;;;;4460513;32;20092;-66
2021/12/20 05:08:36;;;;;;;0.30;0.30;;;2.00;99.90;;;;;;4472483;32;20060;-66
2021/12/20 05:11:04;;;;;;;0.32;0.32;;;2.10;99.90;;;;;;4448323;32;20446;-66
2021/12/20 05:13:29;;;;;;;0.30;0.30;;;2.00;99.90;;;;;;4442584;32;20120;-66
2021/12/20 05:15:55;;;;;;;1.65;0.93;;;2.00;99.90;;;;;;4453224;32;20064;-66
2021/12/20 05:18:20;;;;;;;0.40;0.40;;;2.00;99.90;;;;;;4456996;32;20443;-67
2021/12/20 05:20:46;;;;;;;0.40;0.40;;;1.90;99.90;;;;;;4456329;32;20513;-66
2021/12/20 05:23:12;;;;;;;0.65;0.55;;;1.90;99.90;;;;;;4447851;32;20449;-65
2021/12/20 05:25:38;;;;;;;2.35;1.30;;;2.00;99.90;;;;;;4456824;32;20831;-66
2021/12/20 05:28:05;;;;;;;0.32;0.32;;;2.00;99.90;;;;;;4461087;32;20101;-66
2021/12/20 05:30:31;;;;;;;0.40;0.40;;;2.00;99.90;;;;;;4455342;32;20057;-66
2021/12/20 05:32:57;;;;;;;0.30;0.30;;;1.90;99.90;;;;;;4467767;32;20126;-67
2021/12/20 05:35:23;;;;;;;0.82;0.82;;;1.90;99.90;;;;;;4458645;32;20068;-65
2021/12/20 05:37:50;;;;;;;0.40;0.40;;;1.80;99.90;;;;;;4456476;32;20057;-66
2021/12/20 05:40:16;;;;;;;0.30;0.30;;;1.90;99.90;;;;;;4453039;32;20127;-66
2021/12/20 05:42:45;;;;;;;0.40;0.40;;;1.90;99.90;;;;;;4457460;32;20542;-66
2021/12/20 05:45:11;;;;;;;0.50;0.50;;;1.90;99.90;;;;;;4448966;32;20085;-66
2021/12/20 05:47:37;;;;;;;1.52;1.20;;;1.90;99.90;;;;;;4446297;32;20540;-65
2021/12/20 05:50:04;;;;;;;0.30;0.30;;;1.90;99.90;;;;;;4457316;32;20140;-66
2021/12/20 05:52:29;;;;;;;0.40;0.40;;;1.90;99.90;;;;;;4447102;32;20422;-66
2021/12/20 05:54:55;;;;;;;0.40;0.40;;;1.90;99.90;;;;;;4446759;32;20093;-66
2021/12/20 05:57:20;;;;;;;0.40;0.40;;;1.90;99.90;;;;;;4457542;32;20492;-67
2021/12/20 05:59:46;;;;;;;0.40;0.40;;;1.80;99.90;;;;;;4446400;32;20094;-66
2021/12/20 06:02:11;;;;;;;0.70;0.70;;;1.80;99.90;;;;;;4437069;32;20455;-66
2021/12/20 06:04:37;;;;;;;0.50;0.50;;;1.80;99.90;;;;;;4441104;32;20136;-66
2021/12/20 06:07:03;;;;;;;0.40;0.40;;;1.90;99.90;;;;;;4442637;32;20061;-67
2021/12/20 06:09:28;;;;;;;1.25;0.82;;;1.90;99.90;;;;;;4445508;32;20062;-65
2021/12/20 06:11:59;;;;;;;0.40;0.40;;;1.80;99.90;;;;;;4442066;32;20520;-66
2021/12/20 06:14:25;;;;;;;0.60;0.60;;;1.80;99.90;;;;;;4437903;32;20540;-66
2021/12/20 06:16:51;;;;;;;0.70;0.70;;;1.80;99.90;;;;;;4437478;32;20678;-65
2021/12/20 06:19:17;;;;;;;0.98;0.80;;;1.80;99.90;;;;;;4435437;32;20084;-66
2021/12/20 06:21:43;;;;;;;0.30;0.30;;;1.90;99.90;;;;;;4443206;32;20143;-66
2021/12/20 06:24:09;;;;;;;0.50;0.50;;;1.90;99.90;;;;;;4447585;32;20070;-66
2021/12/20 06:26:34;;;;;;;0.43;0.43;;;1.90;99.90;;;;;;4429648;32;20115;-66
2021/12/20 06:29:00;;;;;;;0.30;0.30;;;1.80;99.90;;;;;;4433603;32;20065;-65
2021/12/20 06:31:25;;;;;;;1.70;1.08;;;1.80;99.90;;;;;;4420021;32;20692;-66
2021/12/20 06:33:51;;;;;;;0.40;0.40;;;1.80;99.90;;;;;;4438501;32;20085;-65
2021/12/20 06:36:18;;;;;;;0.73;0.73;;;1.80;99.90;;;;;;4440099;32;20083;-67
2021/12/20 06:38:47;;;;;;;0.40;0.40;;;1.70;99.90;;;;;;4437596;32;20093;-66
2021/12/20 06:41:14;;;;;;;0.40;0.40;;;1.70;99.90;;;;;;4442163;32;20521;-66
2021/12/20 06:43:40;;;;;;;7.68;1.58;;;1.70;99.90;;;;;;4438269;32;20131;-67
2021/12/20 06:46:08;;;;;;;0.40;0.40;;;1.70;99.90;;;;;;4436782;32;20096;-67
2021/12/20 06:48:35;;;;;;;0.30;0.30;;;1.70;99.90;;;;;;4436523;32;20093;-66
2021/12/20 06:51:00;;;;;;;0.40;0.40;;;1.80;99.90;;;;;;4434379;32;20521;-67
2021/12/20 06:53:27;;;;;;;0.40;0.40;;;1.70;99.90;;;;;;4430527;32;20178;-68
2021/12/20 06:55:53;;;;;;;0.35;0.35;;;1.70;99.90;;;;;;4428804;32;20077;-67
2021/12/20 06:58:18;;;;;;;0.82;0.77;;;1.70;99.90;;;;;;4431734;32;21652;-66
2021/12/20 07:00:44;;;;;;;0.40;0.40;;;1.70;99.90;;;;;;4426108;32;20105;-67
2021/12/20 07:03:09;;;;;;;0.52;0.52;;;1.70;99.90;;;;;;4425534;32;20121;-65
2021/12/20 07:05:35;;;;;;;0.40;0.40;;;1.60;99.90;;;;;;4432232;32;20478;-64
2021/12/20 07:08:02;;;;;;;0.50;0.50;;;1.70;99.90;;;;;;4429407;32;20429;-66
2021/12/20 07:10:28;;;;;;;0.40;0.40;;;1.70;99.90;;;;;;4433388;32;20069;-65
2021/12/20 07:12:55;;;;;;;0.37;0.37;;;1.80;99.90;;;;;;4428880;32;20105;-67
2021/12/20 07:15:21;;;;;;;0.40;0.40;;;1.70;99.90;;;;;;4434451;32;20268;-65
2021/12/20 07:17:46;;;;;;;0.40;0.40;;;1.60;99.90;;;;;;4432605;32;20190;-66
2021/12/20 07:20:12;;;;;;;1.00;0.95;;;1.60;99.90;;;;;;4430059;32;20499;-66
2021/12/20 07:22:38;;;;;;;0.40;0.40;;;1.60;99.90;;;;;;4432126;32;20098;-65
2021/12/20 07:25:04;;;;;;;0.40;0.40;;;1.60;99.90;;;;;;4437179;32;20132;-66
2021/12/20 07:27:30;;;;;;;0.40;0.40;;;1.50;99.90;;;;;;4428903;32;20457;-66
2021/12/20 07:29:56;;;;;;;0.50;0.50;;;1.50;99.90;;;;;;4428601;32;20065;-67
2021/12/20 07:32:23;;;;;;;0.40;0.40;;;1.60;99.90;;;;;;4428523;32;20451;-65
2021/12/20 07:34:48;;;;;;;0.47;0.47;;;1.70;99.90;;;;;;4427872;32;20120;-66
2021/12/20 07:37:14;;;;;;;0.77;0.77;;;1.70;99.90;;;;;;4426097;32;20870;-65
2021/12/20 07:39:39;;;;;;;2.55;1.50;;;1.80;99.90;;;;;;4427311;32;20082;-65
2021/12/20 07:42:07;;;;;;;0.40;0.40;;;1.80;99.90;;;;;;4428537;32;20204;-66
2021/12/20 07:44:32;;;;;;;0.35;0.35;;;1.80;99.90;;;;;;4420924;32;20136;-65
2021/12/20 07:46:58;;;;;;;0.30;0.30;;;1.80;99.90;;;;;;4421856;32;21822;-66
2021/12/20 07:49:23;;;;;;;0.40;0.40;;;1.80;99.90;;;;;;4423909;32;20120;-65
2021/12/20 07:51:51;;;;;;;0.35;0.35;;;1.80;99.90;;;;;;4427228;32;20089;-65
2021/12/20 07:54:18;;;;;;;0.40;0.40;;;1.80;99.90;;;;;;4427392;32;20151;-64
2021/12/20 07:56:43;;;;;;;0.62;0.50;;;1.80;99.90;;;;;;4427314;32;20092;-64
2021/12/20 07:59:09;;;;;;;12.40;0.95;;;1.70;99.90;;;;;;4424710;32;20090;-65
2021/12/20 08:01:35;;;;;;;0.45;0.45;;;1.80;99.90;;;;;;4429633;32;20070;-65
2021/12/20 08:04:02;;;;;;;0.40;0.40;;;1.80;99.90;;;;;;4425312;32;20192;-66
2021/12/20 08:06:27;;;;;;;9.10;1.40;;;1.90;99.90;;;;;;4425584;32;20130;-66
2021/12/20 08:08:53;;;;;;;0.40;0.40;;;1.90;99.90;;;;;;4424896;32;20077;-66
2021/12/20 08:11:18;;;;;;;0.40;0.40;;;1.90;99.90;;;;;;4424616;32;21000;-65
2021/12/20 08:13:44;;;;;;;0.40;0.40;;;1.90;99.90;;;;;;4424551;32;21319;-65
2021/12/20 08:16:19;;;;;;;0.73;0.73;;;2.00;99.90;;;;;;4424283;32;20105;-65
2021/12/20 08:18:46;;;;;;;0.40;0.40;;;2.10;99.90;;;;;;4430025;32;20170;-65
2021/12/20 08:21:14;;;;;;;0.40;0.40;;;2.10;99.90;;;;;;4425190;32;20394;-64
2021/12/20 08:23:40;;;;;;;0.30;0.30;;;2.20;99.90;;;;;;4422660;32;20104;-65
2021/12/20 08:26:07;;;;;;;0.40;0.40;;;2.30;99.90;;;;;;4422527;32;20803;-65
2021/12/20 08:28:33;;;;;;;0.40;0.40;;;2.40;99.90;;;;;;4424835;32;20077;-65
2021/12/20 08:31:00;;;;;;;1.52;0.85;;;2.40;99.90;;;;;;4422697;32;20141;-66
2021/12/20 08:33:26;;;;;;;0.40;0.40;;;2.40;99.90;;;;;;4421944;32;20838;-65
2021/12/20 08:35:51;;;;;;;0.32;0.32;;;2.40;99.90;;;;;;4421275;32;20092;-66
2021/12/20 08:38:18;;;;;;;0.40;0.40;;;2.40;99.90;;;;;;4430332;32;20069;-64
2021/12/20 08:40:46;;;;;;;0.40;0.40;;;2.50;99.90;;;;;;4434556;32;20582;-66
2021/12/20 08:43:12;;;;;;;0.40;0.40;;;2.50;99.90;;;;;;4432663;32;20065;-65
2021/12/20 08:45:38;;;;;;;0.40;0.40;;;2.70;99.90;;;;;;4431435;32;20330;-65
2021/12/20 08:48:05;;;;;;;0.32;0.32;;;2.80;99.90;;;;;;4428316;32;20413;-65
2021/12/20 08:50:30;;;;;;;0.32;0.32;;;2.90;99.90;;;;;;4421504;32;20093;-66
2021/12/20 08:52:56;;;;;;;0.40;0.40;;;3.00;99.90;;;;;;4417633;32;20667;-65
2021/12/20 08:55:23;;;;;;;0.50;0.50;;;3.10;99.90;;;;;;4415307;32;20645;-65
2021/12/20 08:57:50;;;;;;;0.50;0.50;;;3.20;99.90;;;;;;4409520;32;20692;-65
2021/12/20 09:00:21;;;;;;;0.50;0.50;;;3.20;99.90;;;;;;4415197;32;20660;-67
2021/12/20 09:02:46;;;;;;;;;;;3.20;99.90;;;;;;4410993;32;20702;-65
2021/12/20 09:05:12;;;;;;;0.40;0.40;;;3.20;99.90;;;;;;4420455;32;20483;-65
2021/12/20 09:07:41;;;;;;;0.40;0.40;;;3.30;99.90;;;;;;4417555;32;20840;-65
2021/12/20 09:10:07;;;;;;;2.40;1.10;;;3.20;99.90;;;;;;4418872;32;20172;-65
2021/12/20 09:12:32;;;;;;;0.40;0.40;;;3.20;99.90;;;;;;4421969;32;20081;-65
2021/12/20 09:14:58;;;;;;;0.40;0.40;;;3.20;99.90;;;;;;4417562;32;20222;-65
2021/12/20 09:17:23;;;;;;;1.02;0.98;;;3.30;99.90;;;;;;4413916;32;20080;-64
2021/12/20 09:19:51;;;;;;;0.62;0.62;;;3.40;99.90;;;;;;4421650;32;20544;-66
2021/12/20 09:22:17;;;;;;;0.45;0.45;;;3.50;99.90;;;;;;4421007;32;20141;-64
2021/12/20 09:24:44;;;;;;;0.30;0.30;;;3.50;99.90;;;;;;4419219;32;20101;-64
2021/12/20 09:27:09;;;;;;;2.60;1.05;;;3.40;99.90;;;;;;4415407;32;20116;-66
2021/12/20 09:29:36;;;;;;;0.50;0.50;;;3.50;99.90;;;;;;4415743;32;20797;-64
2021/12/20 09:32:02;;;;;;;0.52;0.52;;;3.50;99.90;;;;;;4420069;32;20240;-65
2021/12/20 09:34:28;;;;;;;2.22;1.40;;;3.60;99.90;;;;;;4414142;32;21103;-64
2021/12/20 09:36:54;;;;;;;0.40;0.40;;;3.60;99.90;;;;;;4414668;32;20654;-64
2021/12/20 09:39:22;;;;;;;0.30;0.30;;;3.70;99.90;;;;;;4416580;32;20093;-66
2021/12/20 09:44:18;;;;;;;0.37;0.37;;;3.50;99.90;;;;;;4417738;32;20097;-63
2021/12/20 09:46:44;;;;;;;0.40;0.40;;;3.60;99.90;;;;;;4413709;32;21074;-64
2021/12/20 09:49:11;;;;;;;1.65;1.02;;;3.70;99.90;;;;;;4419610;32;20093;-64
2021/12/20 09:51:37;;;;;;;0.40;0.40;;;3.60;99.90;;;;;;4414543;32;20101;-64
2021/12/20 09:54:04;;;;;;;0.30;0.30;;;3.40;99.90;;;;;;4417229;32;20145;-64
2021/12/20 09:56:31;;;;;;;0.40;0.40;;;3.50;99.90;;;;;;4425489;32;20097;-64
2021/12/20 09:58:58;;;;;;;0.62;0.60;;;3.60;99.90;;;;;;4425399;32;20129;-65
2021/12/20 10:01:26;;;;;;;0.40;0.40;;;3.80;99.90;;;;;;4418434;32;20672;-63
2021/12/20 10:03:53;;;;;;;0.95;0.88;;;3.80;99.90;;;;;;4412006;32;20084;-65
2021/12/20 10:06:19;;;;;;;0.40;0.40;;;3.80;99.90;;;;;;4420082;32;20113;-65
2021/12/20 10:08:50;;;;;;;0.45;0.45;;;3.90;99.90;;;;;;4414885;32;20109;-64
2021/12/20 10:11:25;;;;;;;0.37;0.37;;;4.00;99.90;;;;;;4419530;32;20397;-63
2021/12/20 10:14:11;;;;;;;2.47;1.30;;;4.00;99.90;;;;;;4422124;32;20093;-63
2021/12/20 10:16:39;;;;;;;0.85;0.85;;;4.00;99.90;;;;;;4411357;32;20084;-65
2021/12/20 10:19:27;;;;;;;0.77;0.77;;;4.00;99.90;;;;;;4414578;32;20065;-65
2021/12/20 10:21:54;;;;;;;0.50;0.50;;;4.00;99.90;;;;;;4412946;32;20805;-65
2021/12/20 10:24:36;;;;;;;0.30;0.30;;;3.90;99.90;;;;;;4419084;32;20084;-64
2021/12/20 10:27:03;;;;;;;0.93;0.80;;;3.90;99.90;;;;;;4417051;32;20601;-64
2021/12/20 10:29:29;;;;;;;0.65;0.62;;;4.00;99.90;;;;;;4411925;32;20544;-64
2021/12/20 10:31:55;;;;;;;0.30;0.30;;;4.20;99.90;;;;;;4415876;32;20100;-64
2021/12/20 10:34:36;;;;;;;0.30;0.30;;;4.30;99.90;;;;;;4407656;32;20314;-64
2021/12/20 10:37:03;;;;;;;;;;;4.40;99.90;;;;;;4418847;32;20112;-64
2021/12/20 10:39:34;;;;;;;0.35;0.35;;;4.40;99.90;;;;;;4416708;32;20106;-65
2021/12/20 10:42:18;;;;;;;0.80;0.62;;;4.40;99.90;;;;;;4419711;32;20089;-64
2021/12/20 10:44:44;;;;;;;8.43;2.78;;;4.40;99.90;;;;;;4423407;32;20066;-64
2021/12/20 10:47:25;;;;;;;1.52;0.70;;;4.40;99.90;;;;;;4417017;32;20061;-64
2021/12/20 10:49:50;;;;;;;;;;;4.50;99.90;;;;;;4427749;32;20553;-63
2021/12/20 10:52:26;;;;;;;0.25;0.25;;;4.60;99.90;;;;;;4423026;32;19960;-63
2021/12/20 10:54:53;;;;;;;0.40;0.40;;;4.70;99.90;;;;;;4422240;32;20076;-63
2021/12/20 10:57:28;;;;;;;0.30;0.30;;;4.60;99.90;;;;;;4420464;32;20151;-64
2021/12/20 11:00:14;;;;;;;0.30;0.30;;;4.50;99.90;;;;;;4422195;32;20052;-64
2021/12/20 11:03:17;;;;;;;0.40;0.40;;;4.50;99.90;;;;;;4425608;32;20147;-65
2021/12/20 11:05:57;;;;;;;0.75;0.60;;;4.50;99.90;;;;;;4423653;32;20090;-65
2021/12/20 11:09:25;;;;;;;0.60;0.60;;;4.40;99.90;;;;;;4421771;32;20093;-65
2021/12/20 11:11:11;;;;;;;0.47;0.47;;;4.40;99.90;;;;;;4407639;32;20101;-65
2021/12/20 11:13:38;;;;;;;0.50;0.50;;;4.50;99.90;;;;;;4420919;32;20421;-65
2021/12/20 11:16:27;;;;;;;0.50;0.50;;;4.80;99.90;;;;;;4419050;32;20468;-65
2021/12/20 11:19:14;;;;;;;0.30;0.30;;;4.90;99.90;;;;;;4419101;32;20204;-64
2021/12/20 11:21:58;;;;;;;0.32;0.32;;;5.10;99.90;;;;;;4426374;32;20160;-64
2021/12/20 11:24:30;;;;;;;13.90;0.82;;;5.00;99.90;;;;;;4421057;32;20645;-63
2021/12/20 11:26:58;;;;;;;0.80;0.80;;;4.80;99.90;;;;;;4424356;32;20224;-63
2021/12/20 11:29:25;;;;;;;0.73;0.73;;;5.00;99.90;;;;;;4426250;32;20187;-65
2021/12/20 11:31:52;;;;;;;0.47;0.47;;;4.90;99.90;;;;;;4427179;32;20089;-64
2021/12/20 11:34:18;;;;;;;0.30;0.30;;;4.80;99.90;;;;;;4424279;32;20522;-64
2021/12/20 11:36:44;;;;;;;0.30;0.30;;;5.00;99.90;;;;;;4430265;32;21269;-64
2021/12/20 11:39:10;;;;;;;0.30;0.30;;;5.20;99.90;;;;;;4425113;32;20082;-64
2021/12/20 11:41:36;;;;;;;0.50;0.50;;;5.20;99.90;;;;;;4429090;32;20073;-63
2021/12/20 11:44:05;;;;;;;0.30;0.30;;;5.00;99.90;;;;;;4428482;32;20643;-64
2021/12/20 11:46:41;;;;;;;0.30;0.30;;;5.00;99.90;;;;;;4430756;32;20459;-64
2021/12/20 11:49:07;;;;;;;0.40;0.40;;;5.00;99.90;;;;;;4420956;32;20093;-64
2021/12/20 11:52:02;;;;;;;1.40;0.88;;;5.00;99.90;;;;;;4419572;32;20201;-65
2021/12/20 11:54:34;;;;;;;0.90;0.90;;;5.10;99.90;;;;;;4419558;32;20603;-65
2021/12/20 11:56:59;;;;;;;0.45;0.45;;;5.30;99.90;;;;;;4416046;32;20510;-65
2021/12/20 11:59:48;;;;;;;0.50;0.50;;;5.60;99.90;;;;;;4418014;32;20089;-64
2021/12/20 12:02:24;;;;;;;0.60;0.60;;;5.80;99.90;;;;;;4421274;32;20077;-65
2021/12/20 12:05:08;;;;;;;0.30;0.30;;;5.80;99.90;;;;;;4424690;32;20587;-64
2021/12/20 12:07:37;;;;;;;0.40;0.40;;;5.60;99.90;;;;;;4430049;32;20097;-65
2021/12/20 12:10:07;;;;;;;3.83;1.25;;;5.70;99.90;;;;;;4427540;32;20759;-66
2021/12/20 12:12:39;;;;;;;0.70;0.70;;;5.90;99.90;;;;;;4432377;32;20093;-63
2021/12/20 12:15:09;;;;;;;0.82;0.82;;;5.80;99.90;;;;;;4426767;32;20093;-66
2021/12/20 12:17:54;;;;;;;1.25;1.00;;;6.10;99.90;;;;;;4429932;32;20135;-65
2021/12/20 12:20:47;;;;;;;0.57;0.50;;;6.10;99.90;;;;;;4424779;32;20172;-65
2021/12/20 12:23:22;;;;;;;0.30;0.30;;;6.10;99.90;;;;;;4424364;32;20127;-65
2021/12/20 12:25:58;;;;;;;0.40;0.40;;;6.00;99.90;;;;;;4433069;32;20078;-65
2021/12/20 12:28:26;;;;;;;0.40;0.40;;;6.10;99.90;;;;;;4428516;32;20153;-66
2021/12/20 12:31:07;;;;;;;0.40;0.40;;;6.10;99.90;;;;;;4431767;32;20153;-65
2021/12/20 12:33:37;;;;;;;0.40;0.40;;;6.00;99.90;;;;;;4427366;32;20100;-64
2021/12/20 12:36:07;;;;;;;0.47;0.47;;;5.90;99.90;;;;;;4428012;32;20086;-66
2021/12/20 12:38:37;;;;;;;1.58;0.62;;;6.00;99.90;;;;;;4427850;32;20085;-64
2021/12/20 12:41:13;;;;;;;0.55;0.52;;;5.80;99.90;;;;;;4426073;32;20775;-64
2021/12/20 12:44:00;;;;;;;0.30;0.30;;;5.60;99.90;;;;;;4416474;32;20097;-64
2021/12/20 12:46:53;;;;;;;0.62;0.50;;;5.50;99.90;;;;;;4420622;32;20057;-65
2021/12/20 12:49:26;;;;;;;0.50;0.50;;;5.50;99.90;;;;;;4427258;32;20117;-65
2021/12/20 12:51:53;;;;;;;5.93;0.95;;;5.50;99.90;;;;;;4425818;32;20241;-65
2021/12/20 12:54:38;;;;;;;0.50;0.50;;;5.40;99.90;;;;;;4430568;32;20563;-64
2021/12/20 12:57:10;;;;;;;0.30;0.30;;;5.40;99.90;;;;;;4431841;32;20136;-64
2021/12/20 12:59:42;;;;;;;0.55;0.55;;;5.50;99.90;;;;;;4428015;32;20093;-65
2021/12/20 13:02:11;;;;;;;0.30;0.30;;;5.60;99.90;;;;;;4431543;32;20066;-66
2021/12/20 13:04:47;;;;;;;0.32;0.32;;;5.90;99.90;;;;;;4431522;32;20134;-67
2021/12/20 13:07:19;;;;;;;0.37;0.37;;;6.10;99.90;;;;;;4430405;32;20097;-68
2021/12/20 13:09:47;;;;;;;0.30;0.30;;;6.10;99.90;;;;;;4435178;32;20084;-64
2021/12/20 13:12:19;;;;;;;0.30;0.30;;;6.20;99.90;;;;;;4439512;32;20175;-66
2021/12/20 13:15:03;;;;;;;0.65;0.55;;;6.10;99.90;;;;;;4439685;32;20061;-66